Aérodrome :
LOGIN :

S'inscrire | Disclaimer

   EN    FR    IT 

 










Légende :    VFR   VFR Marginal   IFR   IFR Intensif   IFR Très Intensif
Visi : 
Plafond : 
>= 8 km
>= 3000ft
5 à 8 km
1000 à 3000 ft
1500m à 5 km
500 à 1000 ft
800 à 1500m
200 à 500 ft
< 800m
< 200 ft
Symboles :   Orages  Brouillard  Fortes neiges  Fortes précipitations  Vent > 20 kt
SIGMETs :   Divers  Orages  Givrage  Turbulence  Onde Orograph.  Cendres Volcan.






- Altitude de l'aérodrome : 466 ft


LHPA - Pápa

DERNIER METAR :
  • 271415Z 19006KT 160V230 CAVOK 07/M04 Q1007 NOSIG RMK BLU

METARs EXPIRÉS :
  • 271345Z 24010KT 210V270 CAVOK 08/M04 Q1007 NOSIG RMK BLU
  • 271315Z 28006KT 250V320 CAVOK 07/M05 Q1007 NOSIG RMK BLU
  • 271245Z 31014KT CAVOK 09/M05 Q1007 NOSIG RMK BLU
  • 271215Z 33016KT 290V010 CAVOK 08/M05 Q1007 NOSIG RMK BLU
  • 271145Z 32017KT 280V350 CAVOK 09/M06 Q1008 NOSIG RMK BLU

TAF TAF LHPA
Valide du 27 à 12h jusqu'au 28 à 12h UTC


271115Z 2712/2812 31016G26KT CAVOK
BECMG 2712/2715 18012KT
BECMG 2716/2718 18014G24KT
TEMPO 2719/2803 19020G30KT
TEMPO 2722/2811 8000 -RASN -SN SCT020 BKN050 OVC083
PROB30
TEMPO 2805/2811 6000 -SHSN SCT010 BKN040TCU OVC083
BECMG 2806/2808 32020G30KT
TEMPO 2807/2812 32030G45KT



MET'MAP, la Météo Aéronautique d'un coup d'oeil ! - Copyright ORBIFLY Décembre 2007 - Disclaimer

ORBIFLY MET'MAP TEAM :

Programmation & Développement : Alexandra Zaïnal
Sur une idée originale de : Baudouin d'Aumeries
Assistance à la programmation : Marc-Olivier Méhu
Soutien technique & logistique : Manuel Goepfert

Contact : metmap@orbifly.com




SOURCES & CREDITS :

   NOAA